Flight Track Log - Related Links

Times and Time Zones

All times are in EDT time to prevent confusion due to time zone crossing. See the SWA2870 flight status page for this flight to view local times or setup timezone preferences in your user account.

Time Position Orientation Groundspeed Altitude Reporting Facility
EDT Latitude Longitude Course Direction KTS MPH feet Rate Location/Type
Tue 03:23:32 PM 34.6178 -106.0311 313° West  Level FlightAware Approximate
Tue 03:24:32 PM 34.5437 -105.9249 313° West  Level FlightAware Approximate
Tue 03:24:35 PM 35.0414 -106.5825 142° Southeast 172 198 6,300  Level Albuquerque Center
Tue 03:29:43 PM 34.7303 -106.2844 122° Southeast 355 409 17,200 2,054 Climbing Albuquerque Center
Tue 03:30:43 PM 34.6689 -106.1667 117° Southeast 406 467 18,900 2,050 Climbing Albuquerque Center
Tue 03:31:43 PM 34.6153 -106.0414 121° Southeast 427 491 21,300 2,100 Climbing Albuquerque Center
Tue 03:32:43 PM 34.5492 -105.9086 120° Southeast 443 510 23,100 1,650 Climbing Albuquerque Center
Tue 03:33:43 PM 34.4869 -105.7789 121° Southeast 443 510 24,600 1,600 Climbing Albuquerque Center
Tue 03:34:43 PM 34.4203 -105.6442 121° Southeast 454 522 26,300 1,900 Climbing Albuquerque Center
Tue 03:35:43 PM 34.3558 -105.5122 120° Southeast 459 528 28,400 2,100 Climbing Albuquerque Center
Tue 03:36:43 PM 34.2933 -105.3828 120° Southeast 459 528 30,500 1,650 Climbing Albuquerque Center
Tue 03:37:43 PM 34.2392 -105.2686 120° Southeast 444 511 31,700 1,300 Climbing Albuquerque Center
Tue 03:38:43 PM 34.1764 -105.1394 121° Southeast 444 511 33,100 1,200 Climbing Albuquerque Center
Tue 03:39:43 PM 34.1156 -105.0158 121° Southeast 438 504 34,100 900 Climbing Albuquerque Center
Tue 03:40:43 PM 34.0525 -104.8872 121° Southeast 443 510 34,900 450 Climbing Albuquerque Center
Tue 03:41:43 PM 33.9806 -104.7442 120° Southeast 437 503 35,000 50 Climbing Albuquerque Center
Tue 03:42:43 PM 33.9172 -104.6136 121° Southeast 442 509 35,000  Level Albuquerque Center
Tue 03:43:43 PM 33.8514 -104.4831 120° Southeast 444 511 35,000  Level Albuquerque Center
Tue 03:44:43 PM 33.7878 -104.3528 121° Southeast 444 511 35,000  Level Albuquerque Center
Tue 03:45:43 PM 33.7239 -104.2228 123° Southeast 444 511 35,000  Level Albuquerque Center
Tue 03:46:43 PM 33.6756 -104.1322 120° Southeast 450 518 35,000  Level Albuquerque Center
Tue 03:48:45 PM 33.5364 -103.8472 120° Southeast 428 493 35,000  Level Fort Worth Center
Tue 03:49:45 PM 33.4683 -103.7078 122° Southeast 435 501 35,000  Level Fort Worth Center
Tue 03:50:45 PM 33.4036 -103.5839 120° Southeast 440 506 35,000 400 Level Fort Worth Center
Tue 03:51:45 PM 33.3428 -103.4603 122° Southeast 445 512 35,800 750 Climbing Fort Worth Center
Tue 03:52:45 PM 33.2778 -103.3342 120° Southeast 445 512 36,500 600 Climbing Fort Worth Center
Tue 03:53:45 PM 33.2150 -103.2058 123° Southeast 445 512 37,000 250 Climbing Fort Worth Center
Tue 03:54:45 PM 33.1475 -103.0822 122° Southeast 450 518 37,000  Level Fort Worth Center
Tue 03:55:45 PM 33.0803 -102.9542 121° Southeast 450 518 37,000  Level Fort Worth Center
Tue 03:56:45 PM 33.0169 -102.8289 123° Southeast 445 512 37,000  Level Fort Worth Center
Tue 03:57:45 PM 32.9550 -102.7136 122° Southeast 445 512 37,000  Level Fort Worth Center
Tue 03:58:45 PM 32.8892 -102.5886 121° Southeast 445 512 37,000  Level Fort Worth Center
Tue 03:59:45 PM 32.8256 -102.4614 122° Southeast 445 512 37,000  Level Fort Worth Center
Tue 04:00:45 PM 32.7578 -102.3339 122° Southeast 450 518 37,000  Level Fort Worth Center
Tue 04:01:45 PM 32.6836 -102.1942 123° Southeast 450 518 37,000  Level Fort Worth Center
Tue 04:02:45 PM 32.6133 -102.0672 123° Southeast 450 518 37,000  Level Fort Worth Center
Tue 04:03:45 PM 32.5586 -101.9658 122° Southeast 450 518 37,000  Level Fort Worth Center
Tue 04:04:45 PM 32.4786 -101.8139 123° Southeast 450 518 37,000  Level Fort Worth Center
Tue 04:05:45 PM 32.4117 -101.6925 123° Southeast 450 518 37,000  Level Fort Worth Center
Tue 04:06:57 PM 32.3486 -101.5789 123° Southeast 450 518 37,000  Level Fort Worth Center
Tue 04:07:57 PM 32.2619 -101.4203 122° Southeast 447 514 37,000  Level Fort Worth Center
Tue 04:08:57 PM 32.1950 -101.2944 119° Southeast 452 520 37,000  Level Fort Worth Center
Tue 04:09:57 PM 32.1442 -101.1844 124° Southeast 445 512 37,000  Level Fort Worth Center
Tue 04:10:57 PM 32.0747 -101.0614 124° Southeast 445 512 37,000  Level Fort Worth Center
Tue 04:11:57 PM 31.9992 -100.9286 123° Southeast 445 512 37,000  Level Fort Worth Center
Tue 04:12:57 PM 31.9294 -100.8036 122° Southeast 445 512 37,000  Level Fort Worth Center
Tue 04:13:57 PM 31.8700 -100.6914 123° Southeast 453 521 37,000  Level Fort Worth Center
Tue 04:14:57 PM 31.7961 -100.5592 124° Southeast 448 516 37,000  Level Fort Worth Center
Tue 04:15:57 PM 31.7281 -100.4394 123° Southeast 443 510 37,000  Level Fort Worth Center
Tue 04:18:26 PM 31.5608 -100.1339 123° Southeast 462 532 37,000  Level Houston Center
Tue 04:19:27 PM 31.4933 -100.0139 124° Southeast 457 526 37,000  Level Houston Center
Tue 04:20:26 PM 31.4256 -99.8942 123° Southeast 452 520 37,000  Level Houston Center
Tue 04:21:27 PM 31.3561 -99.7694 122° Southeast 452 520 37,000 -50 Level Houston Center
Tue 04:22:27 PM 31.2886 -99.6450 124° Southeast 452 520 36,900  Descending Houston Center
Tue 04:23:26 PM 31.2186 -99.5253 115° Southeast 450 518 37,000 50 Climbing Houston Center
Tue 04:24:27 PM 31.1639 -99.3903 103° East 456 525 37,000  Level Houston Center
Tue 04:25:27 PM 31.1347 -99.2400 104° East 461 531 37,000  Level Houston Center
Tue 04:26:27 PM 31.1036 -99.0925 104° East 466 536 37,000  Level Houston Center
Tue 04:27:27 PM 31.0700 -98.9397 103° East 471 542 37,000  Level Houston Center
Tue 04:28:26 PM 31.0436 -98.8097 103° East 471 542 37,000  Level Houston Center
Tue 04:29:27 PM 31.0122 -98.6572 103° East 478 550 37,000  Level Houston Center
Tue 04:30:27 PM 30.9822 -98.5078 104° East 478 550 37,000  Level Houston Center
Tue 04:31:27 PM 30.9503 -98.3578 103° East 478 550 37,000  Level Houston Center
Tue 04:32:27 PM 30.9203 -98.2061 105° East 478 550 37,000  Level Houston Center
Tue 04:33:26 PM 30.8856 -98.0586 103° East 478 550 37,000  Level Houston Center
Tue 04:34:26 PM 30.8553 -97.9044 105° East 479 551 37,000  Level Houston Center
Tue 04:35:26 PM 30.8189 -97.7428 104° East 479 551 37,000  Level Houston Center
Tue 04:36:26 PM 30.7858 -97.5911 105° East 479 551 37,000 -400 Level Houston Center
Tue 04:37:26 PM 30.7506 -97.4417 104° East 479 551 36,200 -893 Descending Houston Center
Tue 04:38:27 PM 30.7175 -97.2903 110° East 479 551 35,200 -992 Descending Houston Center
Tue 04:39:27 PM 30.6731 -97.1503 120° Southeast 474 545 34,200 -1,950 Descending Houston Center
Tue 04:40:27 PM 30.6094 -97.0236 120° Southeast 456 525 31,300 -2,950 Descending Houston Center
Tue 04:41:27 PM 30.5436 -96.8925 120° Southeast 468 539 28,300 -3,300 Descending Houston Center
Tue 04:42:27 PM 30.4797 -96.7617 119° Southeast 468 539 24,700 -3,509 Descending Houston Center
Tue 04:43:13 PM 30.4353 -96.6678 120° Southeast 461 531 22,100 -2,924 Descending Houston Center
Tue 04:44:26 PM 30.3594 -96.5150 119° Southeast 447 514 18,900 -2,887 Descending Houston Center
Tue 04:45:26 PM 30.3031 -96.3992 120° Southeast 422 486 15,700 -2,950 Descending Houston Center
Tue 04:46:26 PM 30.2483 -96.2911 127° Southeast 403 464 13,000 -2,350 Descending Houston Center
Tue 04:47:26 PM 30.1869 -96.1969 138° Southeast 381 438 11,000 -1,000 Descending Houston Center
Tue 04:48:26 PM 30.1183 -96.1267 139° Southeast 371 427 11,000  Level Houston Center
Tue 04:49:26 PM 30.0394 -96.0464 140° Southeast 376 433 11,000  Level Houston Center
Tue 04:50:26 PM 29.9586 -95.9689 139° Southeast 376 433 11,000 -99 Level Houston Center
Tue 04:51:27 PM 29.8836 -95.8939 139° Southeast 376 433 10,800 -645 Descending Houston Center
Tue 04:52:27 PM 29.8169 -95.8264 139° Southeast 353 406 9,700 -1,109 Descending Houston Center
Tue 04:53:26 PM 29.7542 -95.7642 139° Southeast 319 367 8,600 -1,059 Descending Houston Center
Tue 04:54:26 PM 29.6953 -95.7044 139° Southeast 302 348 7,600 -992 Descending Houston Center
Tue 04:55:27 PM 29.6386 -95.6472 124° Southeast 288 331 6,600 -1,350 Descending Houston Center
Tue 04:56:26 PM 29.5989 -95.5789 98° East 268 308 4,900 -1,750 Descending Houston Center
Tue 04:57:27 PM 29.5889 -95.4925 89° East 259 298 3,100 -1,076 Descending Houston Center
Tue 04:58:51 PM 29.5897 -95.3850 77° East 191 220 2,300 -795 Descending Houston Center
Tue 04:59:58 PM 29.6017 -95.3258 39° Northeast 137 158 1,100 -891 Descending Houston Center
Tue 05:00:59 PM 29.6317 -95.2981 237° Southwest 138 159 400 -689 Descending Houston Center
Tue 05:08:32 PM 29.1394 -96.1584 237° Southwest  Level FlightAware Approximate

Login

Don't have an account? Register now (free) for customized features, flight alerts, and more!